AntlersSmtRWIS Atmospheric Data: 03/22/2019 Summary  Detailed Graphs  Station List

  Temperature     Wind Precipitation Visibility
Timestamp Air Wet
Bulb
Dew-
point
24-hr
Max
24-hr
Min
Relative
Humidity
Atmospheric
Pressure
Avg
Speed
Avg
Dir
Spot
Speed
Spot
Dir
Max
Speed
Max
Dir
  Rate Situation Start End 1 hr 3 hr 6 hr 12 hr 24 hr   Situation
Date Time °F °F °F °F °F % in Hg mph ° mph ° mph ° Y/N in/hr text Date Time Date Time in in in in in mi text
03/22/2019 12:00 AM 42.80 41.00 38.66 62.06 39.20 85.0 Not Reported 0.45 NE 0.00 E 1.57 N No 0.000 No Precipitation 03/20/2019 07:59 PM 03/20/2019 08:04 PM 0.000 0.000 0.000 0.000 0.000 x Unknown
03/22/2019 12:15 AM 43.34 41.36 39.20 62.06 39.20 85.0 Not Reported 2.68 N 4.25 NW 2.91 N No 0.000 No Precipitation 03/20/2019 07:59 PM 03/20/2019 08:04 PM 0.000 0.000 0.000 0.000 0.000 x Unknown
03/22/2019 12:30 AM 42.62 40.64 38.30 62.06 39.20 84.0 Not Reported 1.79 N 2.24 N 3.80 N No 0.000 No Precipitation 03/20/2019 07:59 PM 03/20/2019 08:04 PM 0.000 0.000 0.000 0.000 0.000 x Unknown
03/22/2019 12:45 AM 42.98 41.18 39.02 62.06 39.20 86.0 Not Reported 2.68 N 3.58 N 2.91 N No 0.000 No Precipitation 03/20/2019 07:59 PM 03/20/2019 08:04 PM 0.000 0.000 0.000 0.000 0.000 x Unknown
03/22/2019 01:00 AM 42.62 41.00 38.84 62.06 39.20 86.0 Not Reported 4.25 N 3.80 N 4.25 N No 0.000 No Precipitation 03/20/2019 07:59 PM 03/20/2019 08:04 PM 0.000 0.000 0.000 0.000 0.000 x Unknown
03/22/2019 01:15 AM 41.72 40.10 38.30 62.06 39.20 88.0 Not Reported 1.79 N 3.13 N 3.80 N No 0.000 No Precipitation 03/20/2019 07:59 PM 03/20/2019 08:04 PM 0.000 0.000 0.000 0.000 0.000 x Unknown
03/22/2019 01:30 AM 41.36 40.10 38.48 62.06 39.20 89.0 Not Reported 2.01 N 1.79 N 2.68 N No 0.000 No Precipitation 03/20/2019 07:59 PM 03/20/2019 08:04 PM 0.000 0.000 0.000 0.000 0.000 x Unknown
03/22/2019 01:45 AM 41.90 40.64 39.20 62.06 39.20 89.0 Not Reported 3.58 N 3.58 N 3.13 N No 0.000 No Precipitation 03/20/2019 07:59 PM 03/20/2019 08:04 PM 0.000 0.000 0.000 0.000 0.000 x Unknown
03/22/2019 02:00 AM 42.26 40.82 39.20 62.06 39.20 88.0 Not Reported 3.36 N 4.70 N 4.25 N No 0.000 No Precipitation 03/20/2019 07:59 PM 03/20/2019 08:04 PM 0.000 0.000 0.000 0.000 0.000 x Unknown
03/22/2019 02:15 AM 42.98 41.18 39.02 62.06 39.20 85.0 Not Reported 5.82 N 6.04 N 5.14 N No 0.000 No Precipitation 03/20/2019 07:59 PM 03/20/2019 08:04 PM 0.000 0.000 0.000 0.000 0.000 x Unknown
03/22/2019 02:30 AM 42.62 40.82 39.02 62.06 39.20 87.0 Not Reported 4.25 N 4.70 N 5.14 N No 0.000 No Precipitation 03/20/2019 07:59 PM 03/20/2019 08:04 PM 0.000 0.000 0.000 0.000 0.000 x Unknown
03/22/2019 02:45 AM 42.44 40.82 38.84 62.06 39.20 87.0 Not Reported 4.03 N 3.58 N 5.14 N No 0.000 No Precipitation 03/20/2019 07:59 PM 03/20/2019 08:04 PM 0.000 0.000 0.000 0.000 0.000 x Unknown
03/22/2019 03:00 AM 42.44 40.82 38.84 62.06 39.20 87.0 Not Reported 3.58 N 2.24 NW 5.14 N No 0.000 No Precipitation 03/20/2019 07:59 PM 03/20/2019 08:04 PM 0.000 0.000 0.000 0.000 0.000 x Unknown
03/22/2019 03:15 AM 42.26 40.64 38.84 62.06 39.20 87.0 Not Reported 4.03 N 3.80 N 3.80 N No 0.000 No Precipitation 03/20/2019 07:59 PM 03/20/2019 08:04 PM 0.000 0.000 0.000 0.000 0.000 x Unknown
03/22/2019 03:30 AM 42.44 40.82 39.02 62.06 39.20 87.0 Not Reported 4.25 N 4.25 N 4.47 N No 0.000 No Precipitation 03/20/2019 07:59 PM 03/20/2019 08:04 PM 0.000 0.000 0.000 0.000 0.000 x Unknown
03/22/2019 03:45 AM 42.62 40.82 39.02 62.06 39.20 87.0 Not Reported 4.47 N 3.80 NW 4.70 N No 0.000 No Precipitation 03/20/2019 07:59 PM 03/20/2019 08:04 PM 0.000 0.000 0.000 0.000 0.000 x Unknown
03/22/2019 04:00 AM 42.62 41.00 39.02 62.06 39.20 86.0 Not Reported 3.80 N 3.36 N 4.47 N No 0.000 No Precipitation 03/20/2019 07:59 PM 03/20/2019 08:04 PM 0.000 0.000 0.000 0.000 0.000 x Unknown
03/22/2019 04:15 AM 42.62 40.82 38.84 62.06 39.20 86.0 Not Reported 3.36 N 4.03 N 4.25 N No 0.000 No Precipitation 03/20/2019 07:59 PM 03/20/2019 08:04 PM 0.000 0.000 0.000 0.000 0.000 x Unknown
03/22/2019 04:30 AM 42.62 40.82 38.84 62.06 39.20 86.0 Not Reported 4.03 N 3.58 N 4.47 NW No 0.000 No Precipitation 03/20/2019 07:59 PM 03/20/2019 08:04 PM 0.000 0.000 0.000 0.000 0.000 x Unknown
03/22/2019 04:45 AM 42.98 41.18 39.02 62.06 39.20 85.0 Not Reported 3.80 N 3.80 N 5.59 W No 0.000 No Precipitation 03/20/2019 07:59 PM 03/20/2019 08:04 PM 0.000 0.000 0.000 0.000 0.000 x Unknown
03/22/2019 05:00 AM 42.98 41.00 38.84 62.06 39.20 85.0 Not Reported 3.80 N 4.25 N 5.14 N No 0.000 No Precipitation 03/20/2019 07:59 PM 03/20/2019 08:04 PM 0.000 0.000 0.000 0.000 0.000 x Unknown
03/22/2019 05:15 AM 42.98 41.00 38.84 62.06 39.20 85.0 Not Reported 4.03 N 3.80 N 4.92 N No 0.000 No Precipitation 03/20/2019 07:59 PM 03/20/2019 08:04 PM 0.000 0.000 0.000 0.000 0.000 x Unknown
03/22/2019 05:30 AM 42.98 41.00 38.66 62.06 39.20 84.0 Not Reported 4.03 N 3.13 N 4.25 N No 0.000 No Precipitation 03/20/2019 07:59 PM 03/20/2019 08:04 PM 0.000 0.000 0.000 0.000 0.000 x Unknown
03/22/2019 05:45 AM 43.16 41.18 39.20 62.06 39.20 85.0 Not Reported 1.12 NW 0.00 NE 4.25 N No 0.000 No Precipitation 03/20/2019 07:59 PM 03/20/2019 08:04 PM 0.000 0.000 0.000 0.000 0.000 x Unknown
03/22/2019 06:00 AM 43.16 41.18 39.02 62.06 39.20 85.0 Not Reported 2.24 N 2.01 N 3.58 N No 0.000 No Precipitation 03/20/2019 07:59 PM 03/20/2019 08:04 PM 0.000 0.000 0.000 0.000 0.000 x Unknown
03/22/2019 06:15 AM 43.16 41.36 39.20 62.06 39.20 85.0 Not Reported 3.13 N 2.24 N 4.47 NW No 0.000 No Precipitation 03/20/2019 07:59 PM 03/20/2019 08:04 PM 0.000 0.000 0.000 0.000 0.000 x Unknown
03/22/2019 06:30 AM 43.34 41.36 39.20 62.06 39.20 85.0 Not Reported 0.67 N 0.89 N 1.34 N No 0.000 No Precipitation 03/20/2019 07:59 PM 03/20/2019 08:04 PM 0.000 0.000 0.000 0.000 0.000 x Unknown
03/22/2019 06:45 AM 43.52 41.54 39.20 62.06 39.20 84.0 Not Reported 1.34 N 2.01 NW 2.68 N No 0.000 No Precipitation 03/20/2019 07:59 PM 03/20/2019 08:04 PM 0.000 0.000 0.000 0.000 0.000 x Unknown
03/22/2019 07:00 AM 43.52 41.72 39.38 62.06 39.20 85.0 Not Reported 1.12 N 0.22 NW 1.79 N No 0.000 No Precipitation 03/20/2019 07:59 PM 03/20/2019 08:04 PM 0.000 0.000 0.000 0.000 0.000 x Unknown
03/22/2019 07:15 AM 44.06 41.90 39.56 62.06 39.20 84.0 Not Reported 1.34 N 1.79 N 2.01 N No 0.000 No Precipitation 03/20/2019 07:59 PM 03/20/2019 08:04 PM 0.000 0.000 0.000 0.000 0.000 x Unknown
03/22/2019 07:30 AM 43.52 41.72 39.92 62.06 39.20 86.0 Not Reported 3.36 SE 4.47 SE 3.80 SE No 0.000 No Precipitation 03/20/2019 07:59 PM 03/20/2019 08:04 PM 0.000 0.000 0.000 0.000 0.000 x Unknown
03/22/2019 07:45 AM 43.88 42.08 39.92 62.06 39.20 86.0 Not Reported 2.91 SE 1.57 SE 4.47 SE No 0.000 No Precipitation 03/20/2019 07:59 PM 03/20/2019 08:04 PM 0.000 0.000 0.000 0.000 0.000 x Unknown
03/22/2019 08:01 AM 43.52 41.90 40.10 62.06 39.20 87.0 Not Reported 1.57 S 1.57 S 2.46 SE No 0.000 No Precipitation 03/20/2019 07:59 PM 03/20/2019 08:04 PM 0.000 0.000 0.000 0.000 0.000 x Unknown
03/22/2019 08:15 AM 43.34 41.72 40.10 62.06 39.20 88.0 Not Reported 0.00 W 1.34 NW 1.79 S No 0.000 No Precipitation 03/20/2019 07:59 PM 03/20/2019 08:04 PM 0.000 0.000 0.000 0.000 0.000 x Unknown
03/22/2019 08:30 AM 44.96 42.80 40.46 62.06 39.20 84.0 Not Reported 1.57 S 0.45 S 4.70 SE No 0.000 No Precipitation 03/20/2019 07:59 PM 03/20/2019 08:04 PM 0.000 0.000 0.000 0.000 0.000 x Unknown
03/22/2019 08:45 AM 45.32 42.98 40.64 62.06 39.56 83.0 Not Reported 0.89 S 2.01 SE 2.24 S No 0.000 No Precipitation 03/20/2019 07:59 PM 03/20/2019 08:04 PM 0.000 0.000 0.000 0.000 0.000 x Unknown
03/22/2019 09:00 AM 46.22 43.52 40.46 62.06 39.56 80.0 Not Reported 5.14 SE 4.47 SE 6.04 SE No 0.000 No Precipitation 03/20/2019 07:59 PM 03/20/2019 08:04 PM 0.000 0.000 0.000 0.000 0.000 x Unknown
03/22/2019 09:15 AM 46.04 43.52 40.82 62.06 39.74 81.0 Not Reported 5.59 SE 3.36 SE 6.26 SE No 0.000 No Precipitation 03/20/2019 07:59 PM 03/20/2019 08:04 PM 0.000 0.000 0.000 0.000 0.000 x Unknown
03/22/2019 09:30 AM 46.04 43.70 41.18 62.06 40.28 83.0 Not Reported 5.37 SE 5.82 SE 9.17 SE No 0.000 No Precipitation 03/20/2019 07:59 PM 03/20/2019 08:04 PM 0.000 0.000 0.000 0.000 0.000 x Unknown
03/22/2019 09:45 AM 45.68 44.06 42.26 62.06 41.18 87.0 Not Reported 4.03 SE 1.34 SE 7.16 SE No 0.000 No Precipitation 03/20/2019 07:59 PM 03/20/2019 08:04 PM 0.000 0.000 0.000 0.000 0.000 x Unknown
03/22/2019 10:00 AM 45.50 44.06 42.62 62.06 41.18 89.0 Not Reported 5.14 SE 2.01 SE 5.82 SE No 0.000 No Precipitation 03/22/2019 08:47 AM 03/22/2019 08:52 AM 0.004 0.004 0.004 0.004 0.004 x Unknown
03/22/2019 10:15 AM 45.50 44.06 42.44 62.06 41.18 89.0 Not Reported 4.70 SE 4.25 SE 6.71 SE No 0.000 No Precipitation 03/22/2019 09:09 AM 03/22/2019 09:14 AM 0.008 0.008 0.008 0.008 0.008 x Unknown
03/22/2019 10:30 AM 45.50 43.70 42.08 62.06 41.18 88.0 Not Reported 5.82 SE 4.25 S 9.40 SE No 0.000 No Precipitation 03/22/2019 09:09 AM 03/22/2019 09:14 AM 0.008 0.008 0.008 0.008 0.008 x Unknown
03/22/2019 10:45 AM 45.32 43.70 42.26 62.06 41.18 88.0 Not Reported 4.03 SE 3.80 SE 6.04 SE Yes 0.003 Rain Slight 03/22/2019 09:42 AM   0.008 0.008 0.008 0.008 0.008 x Unknown
03/22/2019 11:00 AM 44.96 43.34 41.72 62.06 41.18 88.0 Not Reported 0.89 S 0.89 S 2.46 SE No 0.000 No Precipitation 03/22/2019 09:42 AM 03/22/2019 09:47 AM 0.008 0.008 0.008 0.008 0.008 x Unknown
03/22/2019 11:15 AM 44.42 43.16 41.90 62.06 41.18 90.0 Not Reported 2.24 E 5.59 SE 2.24 SE No 0.000 No Precipitation 03/22/2019 10:10 AM 03/22/2019 10:15 AM 0.008 0.016 0.016 0.016 0.016 x Unknown
03/22/2019 11:30 AM 44.78 43.70 42.62 62.06 41.18 92.0 Not Reported 2.01 SE 1.12 SE 4.03 E Yes 0.003 Rain Slight 03/22/2019 10:28 AM   0.008 0.020 0.020 0.020 0.020 x Unknown
03/22/2019 11:45 AM 44.78 43.70 42.44 62.06 41.18 91.0 Not Reported 0.89 S 0.89 S 2.68 SE No 0.000 No Precipitation 03/22/2019 10:39 AM 03/22/2019 10:44 AM 0.008 0.020 0.020 0.020 0.020 x Unknown
03/22/2019 12:00 PM 44.60 43.70 42.80 62.06 41.18 93.0 Not Reported 1.79 SW 0.22 W 2.68 SW Yes 0.003 Rain Slight 03/22/2019 11:00 AM   0.020 0.035 0.035 0.035 0.035 x Unknown
03/22/2019 12:15 PM 45.32 44.60 43.88 62.06 41.18 95.0 Not Reported 1.34 NE 0.67 N 2.46 SE Yes 0.003 Rain Slight 03/22/2019 11:00 AM   0.031 0.043 0.043 0.043 0.043 x Unknown
03/22/2019 12:30 PM 45.14 44.60 43.88 62.06 41.18 95.0 Not Reported 0.00 SE 0.67 SW 2.01 W No 0.000 No Precipitation 03/22/2019 11:21 AM 03/22/2019 11:26 AM 0.031 0.051 0.051 0.051 0.051 x Unknown
03/22/2019 12:45 PM 44.60 43.88 43.16 62.06 41.18 94.0 Not Reported 0.45 S 1.12 S 1.79 S Yes 0.006 Rain Moderate 03/22/2019 11:38 AM   0.039 0.067 0.067 0.067 0.067 x Unknown
03/22/2019 01:00 PM 44.78 43.88 42.98 62.06 41.18 93.0 Not Reported 0.67 NW 0.00 N 2.01 N Yes 0.003 Rain Slight 03/22/2019 11:57 AM   0.039 0.075 0.079 0.079 0.079 x Unknown
03/22/2019 01:15 PM 45.50 44.60 43.70 62.06 41.18 93.0 Not Reported 1.34 NE 2.46 SE 2.46 E Yes 0.003 Rain Slight 03/22/2019 12:12 PM   0.039 0.079 0.083 0.083 0.083 x Unknown
03/22/2019 01:30 PM 45.32 44.06 42.80 62.06 41.18 90.0 Not Reported 2.01 SE 0.89 W 7.16 SE No 0.000 No Precipitation 03/22/2019 12:23 PM 03/22/2019 12:28 PM 0.039 0.083 0.091 0.091 0.091 x Unknown
03/22/2019 01:45 PM 45.14 44.06 42.98 62.06 41.18 92.0 Not Reported 1.34 SE 4.92 E 4.03 SE Yes 0.009 Rain Moderate 03/22/2019 12:37 PM   0.043 0.102 0.110 0.110 0.110 x Unknown
03/22/2019 02:00 PM 44.96 44.24 43.52 62.06 41.18 94.0 Not Reported 1.57 S 2.91 SW 5.14 SE Yes 0.003 Rain Slight 03/22/2019 12:37 PM   0.059 0.126 0.138 0.138 0.138 x Unknown
03/22/2019 02:15 PM 45.14 44.42 43.70 62.06 41.18 94.0 Not Reported 2.46 SE 1.12 SW 4.92 S No 0.000 No Precipitation 03/22/2019 01:08 PM 03/22/2019 01:13 PM 0.055 0.126 0.142 0.142 0.142 x Unknown
03/22/2019 02:32 PM 45.50 44.96 44.42 62.06 41.18 95.0 Not Reported 1.34 E 2.01 E 4.03 SE Yes 0.006 Rain Moderate 03/22/2019 01:20 PM   0.067 0.142 0.161 0.161 0.161 x Unknown
03/22/2019 02:45 PM 44.42 43.88 43.34 62.06 41.18 95.0 Not Reported 1.12 S 0.45 NE 3.58 S Yes 0.009 Rain Moderate 03/22/2019 01:20 PM   0.067 0.157 0.181 0.181 0.181 x Unknown
03/22/2019 03:00 PM 44.24 43.52 42.80 62.06 41.18 94.0 Not Reported 2.68 SE 2.24 S 5.59 SE No 0.000 No Precipitation 03/22/2019 01:20 PM 03/22/2019 02:00 PM 0.055 0.157 0.189 0.189 0.189 x Unknown
03/22/2019 03:15 PM 43.70 42.98 42.08 62.06 41.18 93.0 Not Reported 1.57 S 2.24 E 6.26 SE Yes 0.003 Rain Slight 03/22/2019 02:10 PM   0.063 0.157 0.205 0.205 0.205 x Unknown
03/22/2019 03:30 PM 43.88 43.16 42.44 62.06 41.18 94.0 Not Reported 3.36 SE 4.47 SE 4.70 SE Yes 0.006 Rain Moderate 03/22/2019 02:10 PM   0.075 0.181 0.228 0.228 0.228 x Unknown
03/22/2019 03:45 PM 44.06 43.34 42.44 62.06 41.18 93.0 Not Reported 5.82 SE 5.59 SE 8.50 SE Yes 0.003 Rain Slight 03/22/2019 02:45 PM   0.067 0.181 0.244 0.244 0.244 x Unknown
03/22/2019 04:00 PM 43.88 43.16 42.44 62.06 41.18 95.0 Not Reported 3.80 SE 2.91 SE 6.93 SE No 0.000 No Precipitation 03/22/2019 02:55 PM 03/22/2019 03:00 PM 0.059 0.169 0.244 0.252 0.252 x Unknown
03/22/2019 04:15 PM 44.06 43.70 43.16 62.06 41.18 96.0 Not Reported 0.89 N 1.12 N 4.70 SE Yes 0.003 Rain Slight 03/22/2019 03:11 PM   0.055 0.169 0.252 0.260 0.260 x Unknown
03/22/2019 04:30 PM 44.06 43.70 43.34 62.06 41.18 97.0 Not Reported 2.91 N 2.24 NW 3.80 N Yes 0.003 Rain Slight 03/22/2019 03:26 PM   0.035 0.177 0.260 0.268 0.268 x Unknown
03/22/2019 04:45 PM 43.88 43.70 43.34 62.06 41.18 98.0 Not Reported 3.13 N 4.03 N 3.80 NW No 0.000 No Precipitation 03/22/2019 03:38 PM 03/22/2019 03:43 PM 0.020 0.157 0.260 0.272 0.272 x Unknown
03/22/2019 05:00 PM 43.70 43.52 43.34 62.06 41.18 98.0 Not Reported 4.47 N 4.03 N 4.70 N Yes 0.003 Rain Slight 03/22/2019 03:57 PM   0.028 0.142 0.268 0.280 0.280 x Unknown
03/22/2019 05:15 PM 43.34 43.34 43.16 62.06 41.18 99.0 Not Reported 4.25 N 4.70 N 6.04 N Yes 0.006 Rain Moderate 03/22/2019 04:03 PM   0.039 0.157 0.283 0.299 0.299 x Unknown
03/22/2019 05:30 PM 43.34 43.34 43.16 61.88 41.18 99.0 Not Reported 3.80 N 3.13 N 4.92 N Yes 0.003 Rain Slight 03/22/2019 04:29 PM   0.039 0.154 0.291 0.311 0.311 x Unknown
03/22/2019 05:45 PM 43.16 43.16 42.98 61.52 41.18 99.0 Not Reported 3.58 NW 5.14 N 5.59 NW Yes 0.003 Rain Slight 03/22/2019 04:43 PM   0.043 0.138 0.295 0.315 0.315 x Unknown
03/22/2019 06:00 PM 42.98 42.80 42.80 60.44 41.18 99.0 Not Reported 5.14 N 4.70 NW 6.49 N Yes 0.003 Rain Slight 03/22/2019 04:49 PM   0.051 0.138 0.295 0.331 0.331 x Unknown
03/22/2019 06:15 PM 42.62 42.62 42.44 60.26 41.18 99.0 Not Reported 4.92 N 4.92 N 6.71 N Yes 0.006 Rain Moderate 03/22/2019 05:03 PM   0.055 0.150 0.307 0.354 0.354 x Unknown
03/22/2019 06:30 PM 42.98 42.98 42.80 60.08 41.18 99.0 Not Reported 4.03 N 4.47 N 5.82 N Yes 0.006 Rain Moderate 03/22/2019 05:03 PM   0.067 0.146 0.323 0.374 0.374 x Unknown
03/22/2019 06:45 PM 43.16 42.98 42.98 60.08 41.18 99.0 Not Reported 2.91 NW 3.13 N 4.47 N Yes 0.009 Rain Moderate 03/22/2019 05:03 PM   0.083 0.154 0.335 0.402 0.402 x Unknown
03/22/2019 07:00 PM 43.16 42.98 42.98 59.72 41.18 99.0 Not Reported 3.58 N 3.58 N 4.70 NW Yes 0.003 Rain Slight 03/22/2019 05:03 PM   0.091 0.165 0.343 0.421 0.421 x Unknown
03/22/2019 07:15 PM 42.98 42.80 42.62 58.82 41.18 99.0 Not Reported 4.03 N 4.70 N 4.70 NW Yes 0.006 Rain Moderate 03/22/2019 06:02 PM   0.083 0.181 0.354 0.441 0.441 x Unknown
03/22/2019 07:30 PM 42.80 42.80 42.62 58.46 41.18 99.0 Not Reported 4.03 N 4.70 N 5.37 N Yes 0.006 Rain Moderate 03/22/2019 06:26 PM   0.079 0.185 0.362 0.453 0.453 x Unknown
03/22/2019 07:45 PM 42.44 42.26 42.08 57.74 41.18 99.0 Not Reported 4.03 N 2.91 N 4.92 NW No 0.000 No Precipitation 03/22/2019 06:26 PM 03/22/2019 06:45 PM 0.071 0.201 0.354 0.472 0.472 x Unknown
03/22/2019 08:00 PM 42.62 42.44 42.26 57.38 41.18 99.0 Not Reported 3.80 N 4.47 N 4.92 N Yes 0.003 Rain Slight 03/22/2019 06:55 PM   0.063 0.205 0.343 0.480 0.480 x Unknown
03/22/2019 08:15 PM 42.44 42.26 42.08 54.50 41.18 99.0 Not Reported 3.36 N 2.91 NW 4.70 N Yes 0.003 Rain Slight 03/22/2019 06:55 PM   0.059 0.201 0.354 0.500 0.500 x Unknown
03/22/2019 08:30 PM 42.80 42.62 42.44 52.52 41.18 99.0 Not Reported 3.58 N 3.80 NW 4.70 N Yes 0.006 Rain Moderate 03/22/2019 06:55 PM   0.063 0.205 0.362 0.520 0.520 x Unknown
03/22/2019 08:45 PM 42.62 42.62 42.44 49.82 41.18 99.0 Not Reported 4.03 N 4.03 N 4.70 N Yes 0.006 Rain Moderate 03/22/2019 06:55 PM   0.067 0.220 0.354 0.539 0.539 x Unknown
03/22/2019 09:00 PM 42.26 42.26 42.08 49.28 41.18 99.0 Not Reported 2.68 N 4.25 N 5.59 N Yes 0.006 Rain Moderate 03/22/2019 06:55 PM   0.075 0.224 0.362 0.559 0.559 x Unknown
03/22/2019 09:15 PM 42.26 42.08 41.90 48.56 41.18 99.0 Not Reported 4.92 N 5.14 N 5.37 N Yes 0.003 Rain Slight 03/22/2019 06:55 PM   0.075 0.220 0.370 0.575 0.575 x Unknown
03/22/2019 09:30 PM 42.08 41.90 41.90 47.30 41.18 99.0 Not Reported 4.92 N 4.03 N 5.59 N No 0.000 No Precipitation 03/22/2019 08:25 PM 03/22/2019 08:30 PM 0.063 0.205 0.350 0.583 0.583 x Unknown
03/22/2019 09:45 PM 42.08 41.90 41.90 46.58 41.18 99.0 Not Reported 3.80 N 2.91 N 5.14 N Yes 0.003 Rain Slight 03/22/2019 08:44 PM   0.051 0.185 0.343 0.591 0.591 x Unknown
03/22/2019 10:00 PM 41.72 41.72 41.54 46.22 41.18 99.0 Not Reported 4.03 N 3.58 NW 4.70 N Yes 0.003 Rain Slight 03/22/2019 08:49 PM   0.039 0.181 0.350 0.598 0.602 x Unknown
03/22/2019 10:15 PM 41.72 41.54 41.54 46.22 41.18 99.0 Not Reported 3.80 N 2.91 N 4.47 N Yes 0.003 Rain Slight 03/22/2019 08:49 PM   0.039 0.169 0.354 0.606 0.614 x Unknown
03/22/2019 10:30 PM 41.36 41.36 41.18 46.22 41.18 99.0 Not Reported 2.91 NW 2.01 N 5.59 N Yes 0.003 Rain Slight 03/22/2019 08:49 PM   0.043 0.169 0.362 0.622 0.630 x Unknown
03/22/2019 10:45 PM 41.36 41.18 41.18 46.22 41.18 99.0 Not Reported 4.25 N 4.47 NW 4.47 N Yes 0.006 Rain Moderate 03/22/2019 08:49 PM   0.055 0.169 0.374 0.630 0.646 x Unknown
03/22/2019 11:00 PM 41.36 41.18 41.18 46.22 41.18 99.0 Not Reported 4.70 N 5.37 N 6.26 NW Yes 0.006 Rain Moderate 03/22/2019 08:49 PM   0.059 0.177 0.382 0.650 0.661 x Unknown
03/22/2019 11:15 PM 41.36 41.36 41.18 46.22 41.18 99.0 Not Reported 4.25 NW 4.47 N 5.59 N Yes 0.003 Rain Slight 03/22/2019 10:10 PM   0.059 0.169 0.374 0.654 0.669 x Unknown
03/22/2019 11:30 PM 41.54 41.36 41.36 46.22 41.18 99.0 Not Reported 3.36 N 4.25 N 5.82 N Yes 0.003 Rain Slight 03/22/2019 10:29 PM   0.051 0.161 0.370 0.661 0.681 x Unknown
03/22/2019 11:45 PM 41.72 41.54 41.54 46.22 41.18 99.0 Not Reported 4.03 N 5.59 N 6.04 NW Yes 0.006 Rain Moderate 03/22/2019 10:39 PM   0.051 0.157 0.374 0.669 0.693 x Unknown